Time;durP1;ratioP1;P1;durP2;ratioP2;P2;SDS_P1;SDS_P2;PMS_P1;PMS_P2;Temp;Humidity;BMP_temperature;BMP_pressure;BME280_temperature;BME280_humidity;BME280_pressure;Samples;Min_cycle;Max_cycle;Signal;HPM_P1;HPM_P2
2023/08/23 00:02:24;;;;;;;5.32;3.92;;;;;;;17.70;86.58;101914.34;5091776;28;20024;-57
2023/08/23 00:04:50;;;;;;;7.50;3.70;;;;;;;17.62;86.56;101909.56;5074283;28;20593;-57
2023/08/23 00:07:15;;;;;;;7.13;3.92;;;;;;;17.59;86.83;101901.72;5093328;28;20024;-57
2023/08/23 00:09:41;;;;;;;4.10;3.70;;;;;;;17.63;86.59;101897.81;5088921;28;20055;-57
2023/08/23 00:12:07;;;;;;;5.75;3.67;;;;;;;17.46;87.19;101906.28;5089287;28;20374;-57
2023/08/23 00:14:32;;;;;;;7.32;4.03;;;;;;;17.53;86.61;101896.81;5090137;28;20485;-57
2023/08/23 00:16:57;;;;;;;3.92;3.50;;;;;;;17.39;86.73;101887.09;5085184;28;20119;-57
2023/08/23 00:19:23;;;;;;;5.05;3.88;;;;;;;17.31;87.28;101902.94;5091867;28;20402;-57
2023/08/23 00:21:48;;;;;;;5.05;3.88;;;;;;;17.27;87.51;101897.91;5079180;28;20064;-57
2023/08/23 00:24:14;;;;;;;5.60;3.60;;;;;;;17.45;87.08;101902.75;5091367;28;20020;-57
2023/08/23 00:26:39;;;;;;;5.95;3.70;;;;;;;17.36;87.29;101889.16;5081478;28;20040;-57
2023/08/23 00:29:07;;;;;;;4.30;3.90;;;;;;;17.33;87.67;101902.81;5080741;28;20182;-57
2023/08/23 00:31:32;;;;;;;4.93;3.85;;;;;;;17.27;87.48;101885.31;5090959;28;20024;-57
2023/08/23 00:33:58;;;;;;;6.50;3.75;;;;;;;17.30;87.22;101898.53;5091556;28;20034;-57
2023/08/23 00:36:23;;;;;;;5.55;3.85;;;;;;;17.33;87.24;101892.06;5090872;28;20478;-57
2023/08/23 00:38:49;;;;;;;5.88;3.40;;;;;;;17.20;87.55;101889.41;5101191;28;20039;-57
2023/08/23 00:41:15;;;;;;;4.00;3.70;;;;;;;17.23;87.48;101879.28;5097940;28;20386;-58
2023/08/23 00:43:40;;;;;;;4.40;4.00;;;;;;;17.24;87.64;101878.34;5088139;28;20438;-57
2023/08/23 00:46:06;;;;;;;4.57;3.67;;;;;;;17.23;87.49;101871.22;5089383;28;20062;-57
2023/08/23 00:48:32;;;;;;;5.32;4.35;;;;;;;17.24;87.40;101864.03;5100983;28;20064;-57
2023/08/23 00:50:58;;;;;;;4.63;4.22;;;;;;;17.13;88.21;101872.03;5090324;28;20020;-57
2023/08/23 00:53:24;;;;;;;5.75;4.28;;;;;;;17.16;87.80;101875.34;5075266;28;20093;-57
2023/08/23 00:55:49;;;;;;;4.75;4.25;;;;;;;16.92;88.51;101872.66;5085926;28;20052;-57
2023/08/23 00:58:15;;;;;;;6.18;4.65;;;;;;;17.10;88.60;101872.28;5084483;28;20088;-57
2023/08/23 01:00:41;;;;;;;5.07;4.18;;;;;;;17.12;88.50;101867.63;5088455;28;20024;-57
2023/08/23 01:03:07;;;;;;;5.80;4.63;;;;;;;17.12;88.46;101868.50;5089467;28;20020;-58
2023/08/23 01:05:38;;;;;;;5.20;4.40;;;;;;;16.95;89.27;101871.56;5088848;28;20476;-57
2023/08/23 01:08:08;;;;;;;4.35;3.92;;;;;;;16.88;88.91;101864.91;5093079;28;20038;-57
2023/08/23 01:10:39;;;;;;;4.70;4.30;;;;;;;16.94;88.94;101864.47;5082315;28;20066;-58
2023/08/23 01:13:27;;;;;;;5.22;4.43;;;;;;;16.99;88.96;101865.00;5083562;28;20028;-57
2023/08/23 01:15:56;;;;;;;5.82;4.28;;;;;;;16.99;88.65;101881.13;5082779;28;20059;-57
2023/08/23 01:18:23;;;;;;;4.28;3.80;;;;;;;16.92;88.70;101885.25;5091684;28;20103;-57
2023/08/23 01:20:52;;;;;;;5.70;4.30;;;;;;;16.84;88.85;101882.25;5093404;28;20058;-57
2023/08/23 01:23:18;;;;;;;7.80;4.10;;;;;;;16.88;88.71;101876.53;5093009;28;20107;-57
2023/08/23 01:25:47;;;;;;;4.75;4.28;;;;;;;16.70;89.26;101885.91;5110233;27;20024;-57
2023/08/23 01:28:12;;;;;;;6.28;3.95;;;;;;;16.65;88.88;101878.19;5093156;28;20487;-57
2023/08/23 01:30:39;;;;;;;4.97;3.88;;;;;;;16.71;89.05;101884.94;5095181;28;20099;-57
2023/08/23 01:33:12;;;;;;;4.80;3.70;;;;;;;16.60;89.53;101882.16;5095439;28;20483;-57
2023/08/23 01:35:43;;;;;;;6.97;4.07;;;;;;;16.65;89.27;101888.94;5107857;28;20136;-57
2023/08/23 01:38:13;;;;;;;5.38;3.97;;;;;;;16.73;89.19;101877.63;5115518;28;20502;-57
2023/08/23 01:40:39;;;;;;;7.68;3.90;;;;;;;16.67;89.30;101878.06;5096794;28;20028;-57
2023/08/23 01:43:04;;;;;;;6.72;4.20;;;;;;;16.56;89.25;101858.22;5095148;28;20024;-57
2023/08/23 01:45:35;;;;;;;7.00;4.20;;;;;;;16.65;89.17;101863.88;5094566;28;20081;-57
2023/08/23 01:48:00;;;;;;;10.70;4.53;;;;;;;16.69;88.89;101860.88;5095124;28;20028;-57
2023/08/23 01:50:25;;;;;;;7.55;4.53;;;;;;;16.50;89.45;101858.66;5094763;28;20031;-57
2023/08/23 01:52:51;;;;;;;8.15;4.40;;;;;;;16.57;89.19;101864.44;5094304;28;20028;-57
2023/08/23 01:55:20;;;;;;;6.95;4.35;;;;;;;16.54;89.39;101867.34;5096729;28;20059;-57
2023/08/23 01:57:46;;;;;;;;;;;;;;;16.80;87.68;101869.03;5081911;28;20028;-57
2023/08/23 02:00:11;;;;;;;11.10;3.80;;;;;;;16.53;89.10;101863.81;5091680;28;19912;-57
2023/08/23 02:02:37;;;;;;;10.75;4.45;;;;;;;16.49;89.36;101861.44;5094828;28;20398;-57
2023/08/23 02:05:02;;;;;;;10.10;4.35;;;;;;;16.34;89.49;101863.41;5080773;28;20390;-57
2023/08/23 02:07:28;;;;;;;12.52;4.47;;;;;;;16.45;89.53;101865.34;5078167;28;20027;-57
2023/08/23 02:09:55;;;;;;;10.25;4.15;;;;;;;16.44;89.50;101868.97;5073989;28;20105;-57
2023/08/23 02:12:21;;;;;;;10.25;4.38;;;;;;;16.42;89.36;101861.03;5085852;28;20051;-58
2023/08/23 02:14:46;;;;;;;13.65;4.43;;;;;;;16.41;89.10;101863.81;5091073;28;20107;-57
2023/08/23 02:17:13;;;;;;;9.25;4.22;;;;;;;16.25;89.85;101864.06;5117601;27;20450;-57
2023/08/23 02:19:38;;;;;;;11.27;4.13;;;;;;;16.29;89.49;101870.91;5091557;28;20032;-57
2023/08/23 02:22:04;;;;;;;9.45;4.72;;;;;;;16.22;89.17;101859.75;5094710;28;20092;-57
2023/08/23 02:24:31;;;;;;;12.73;4.63;;;;;;;16.20;89.75;101869.75;5091522;28;20013;-57
2023/08/23 02:26:57;;;;;;;10.68;4.72;;;;;;;16.07;89.92;101859.00;5082020;28;20079;-57
2023/08/23 02:29:24;;;;;;;11.70;4.28;;;;;;;16.24;89.45;101867.72;5090836;28;20036;-57
2023/08/23 02:31:50;;;;;;;12.65;5.22;;;;;;;16.18;90.31;101860.06;5085820;28;20058;-57
2023/08/23 02:34:15;;;;;;;12.65;4.82;;;;;;;16.14;90.03;101859.44;5094029;28;20542;-57
2023/08/23 02:36:40;;;;;;;17.42;4.47;;;;;;;16.17;90.01;101861.06;5092131;28;20061;-58
2023/08/23 02:39:06;;;;;;;8.63;4.25;;;;;;;16.12;89.57;101867.63;5075074;28;20511;-57
2023/08/23 02:41:31;;;;;;;10.35;4.45;;;;;;;16.05;89.65;101860.94;5078429;28;20025;-58
2023/08/23 02:43:57;;;;;;;10.75;4.45;;;;;;;16.15;89.80;101857.59;5079984;28;20024;-57
2023/08/23 02:46:22;;;;;;;9.77;4.25;;;;;;;16.07;89.95;101859.00;5092493;28;20060;-58
2023/08/23 02:48:47;;;;;;;8.60;4.22;;;;;;;15.98;89.86;101866.84;5092726;28;20020;-57
2023/08/23 02:51:13;;;;;;;12.13;4.43;;;;;;;16.06;89.99;101862.69;5081348;28;20031;-57
2023/08/23 02:53:38;;;;;;;12.55;4.72;;;;;;;15.99;90.27;101864.06;5090258;28;20376;-57
2023/08/23 02:56:04;;;;;;;6.03;4.40;;;;;;;15.95;90.12;101856.34;5092606;28;20435;-57
2023/08/23 02:58:29;;;;;;;10.43;4.03;;;;;;;16.01;89.76;101851.41;5092704;28;20140;-57
2023/08/23 03:00:54;;;;;;;8.05;4.10;;;;;;;15.96;89.65;101852.69;5088708;28;20020;-57
2023/08/23 03:03:20;;;;;;;10.27;4.55;;;;;;;16.01;89.57;101848.72;5088341;28;20020;-57
2023/08/23 03:05:56;;;;;;;10.23;4.35;;;;;;;15.95;89.68;101853.66;5092696;28;20390;-57
2023/08/23 03:08:23;;;;;;;10.45;4.05;;;;;;;15.86;89.83;101839.91;5092349;28;20032;-57
2023/08/23 03:10:51;;;;;;;9.20;4.40;;;;;;;15.79;89.63;101848.47;5091350;28;20356;-57
2023/08/23 03:13:19;;;;;;;8.05;3.95;;;;;;;15.71;89.23;101846.34;5123487;27;20562;-57
2023/08/23 03:15:52;;;;;;;10.35;4.15;;;;;;;15.77;90.13;101845.06;5091351;28;20028;-57
2023/08/23 03:18:18;;;;;;;12.07;5.07;;;;;;;15.72;89.68;101847.19;5092531;28;20028;-58
2023/08/23 03:20:43;;;;;;;9.20;4.60;;;;;;;15.73;90.03;101844.41;5090016;28;20035;-57
2023/08/23 03:23:09;;;;;;;9.40;4.53;;;;;;;15.67;90.31;101845.66;5084327;28;20702;-57
2023/08/23 03:25:34;;;;;;;9.15;4.53;;;;;;;15.74;90.32;101846.13;5088871;28;20028;-57
2023/08/23 03:28:00;;;;;;;9.23;4.93;;;;;;;15.74;90.48;101840.75;5091425;28;20446;-57
2023/08/23 03:30:25;;;;;;;8.80;4.82;;;;;;;15.76;90.04;101837.97;5092317;28;20521;-57
2023/08/23 03:32:50;;;;;;;15.60;5.40;;;;;;;15.65;89.94;101836.84;5093196;28;20482;-57
2023/08/23 03:35:16;;;;;;;11.88;4.93;;;;;;;15.71;90.05;101843.66;5093542;28;20603;-57
2023/08/23 03:37:41;;;;;;;10.95;5.45;;;;;;;15.61;90.09;101845.22;5091631;28;20028;-57
2023/08/23 03:40:07;;;;;;;13.30;4.93;;;;;;;15.64;90.00;101845.84;5089748;28;20027;-57
2023/08/23 03:42:32;;;;;;;12.95;4.82;;;;;;;15.51;90.69;101847.66;5072544;28;20099;-57
2023/08/23 03:44:58;;;;;;;11.52;4.97;;;;;;;15.67;90.45;101845.66;5072462;28;20027;-57
2023/08/23 03:47:23;;;;;;;14.70;4.78;;;;;;;15.61;90.91;101840.69;5072622;28;20032;-57
2023/08/23 03:49:48;;;;;;;11.93;5.05;;;;;;;15.63;90.96;101844.16;5082136;28;20028;-58
2023/08/23 03:52:14;;;;;;;13.63;5.57;;;;;;;15.58;91.08;101840.06;5085735;28;20070;-57
2023/08/23 03:54:40;;;;;;;18.92;5.75;;;;;;;15.55;91.28;101845.63;5088444;28;20153;-57
2023/08/23 03:57:05;;;;;;;12.02;5.70;;;;;;;15.50;91.41;101840.59;5077937;28;20582;-57
2023/08/23 03:59:31;;;;;;;19.02;5.82;;;;;;;15.41;92.24;101842.06;5085668;28;20418;-57
2023/08/23 04:01:56;;;;;;;15.02;5.43;;;;;;;15.53;91.77;101848.44;5085137;28;20035;-57
2023/08/23 04:04:22;;;;;;;12.55;4.88;;;;;;;15.58;91.66;101838.22;5091382;28;20087;-57
2023/08/23 04:06:47;;;;;;;16.30;4.72;;;;;;;15.55;92.00;101845.63;5074063;28;20036;-58
2023/08/23 04:09:13;;;;;;;13.32;5.18;;;;;;;15.60;92.08;101844.34;5086857;28;20027;-57
2023/08/23 04:11:38;;;;;;;16.90;5.00;;;;;;;15.60;92.25;101844.34;5088283;28;20085;-57
2023/08/23 04:14:04;;;;;;;16.23;6.15;;;;;;;15.55;92.09;101857.22;5089858;28;20028;-57
2023/08/23 04:16:29;;;;;;;15.07;5.53;;;;;;;15.50;91.67;101845.06;5090135;28;20032;-57
2023/08/23 04:18:55;;;;;;;13.18;5.20;;;;;;;15.57;91.71;101855.28;5088409;28;20016;-57
2023/08/23 04:21:24;;;;;;;11.70;4.72;;;;;;;15.50;91.90;101837.91;5084284;28;20020;-57
2023/08/23 04:23:50;;;;;;;15.15;5.28;;;;;;;15.54;92.21;101850.13;5086195;28;20123;-57
2023/08/23 04:26:15;;;;;;;12.90;5.40;;;;;;;15.45;92.45;101838.22;5112943;27;20058;-57
2023/08/23 04:28:40;;;;;;;8.48;4.88;;;;;;;15.56;92.34;101856.25;5083919;28;20024;-57
2023/08/23 04:31:06;;;;;;;15.20;5.50;;;;;;;15.38;92.02;101841.41;5088880;28;20027;-57
2023/08/23 04:33:34;;;;;;;13.32;5.72;;;;;;;15.45;92.03;101845.41;5089754;28;20020;-57
2023/08/23 04:36:00;;;;;;;13.50;4.97;;;;;;;15.36;92.70;101856.75;5092069;28;20027;-57
2023/08/23 04:38:25;;;;;;;10.68;4.70;;;;;;;15.40;92.50;101859.09;5091605;28;20498;-57
2023/08/23 04:40:59;;;;;;;10.30;4.45;;;;;;;15.41;92.42;101859.97;5078514;28;20489;-57
2023/08/23 04:43:24;;;;;;;12.73;5.20;;;;;;;15.48;92.53;101861.28;5112239;28;20405;-57
2023/08/23 04:45:54;;;;;;;10.23;4.88;;;;;;;15.36;92.75;101860.28;5112199;28;20027;-57
2023/08/23 04:48:19;;;;;;;;;;;;;;;15.66;91.19;101860.03;5111447;28;20016;-57
2023/08/23 04:51:00;;;;;;;11.63;5.07;;;;;;;15.41;92.96;101866.19;5073403;28;19919;-57
2023/08/23 04:53:26;;;;;;;8.00;4.95;;;;;;;15.44;93.09;101857.97;5071257;28;20028;-57
2023/08/23 04:55:58;;;;;;;11.10;5.00;;;;;;;15.53;93.33;101848.44;5069595;28;20073;-57
2023/08/23 04:58:27;;;;;;;9.43;4.93;;;;;;;15.53;93.40;101853.78;5076508;28;20391;-57
2023/08/23 05:00:58;;;;;;;11.07;4.80;;;;;;;15.51;93.33;101857.53;5075004;28;20020;-57
2023/08/23 05:03:25;;;;;;;8.60;4.93;;;;;;;15.51;93.91;101854.84;5070068;28;20036;-57
2023/08/23 05:05:52;;;;;;;8.23;4.32;;;;;;;15.58;93.95;101853.47;5086780;28;20019;-57
2023/08/23 05:08:17;;;;;;;7.32;4.53;;;;;;;15.51;94.28;101844.97;5089105;28;20137;-57
2023/08/23 05:10:43;;;;;;;5.82;4.55;;;;;;;15.47;94.78;101845.28;5089107;28;20563;-57
2023/08/23 05:13:09;;;;;;;6.55;4.55;;;;;;;15.67;94.51;101859.06;5090670;28;20024;-57
2023/08/23 05:15:34;;;;;;;7.20;4.75;;;;;;;15.59;94.93;101848.00;5089547;28;20109;-57
2023/08/23 05:18:00;;;;;;;5.72;4.57;;;;;;;15.59;94.67;101831.06;5089528;28;20103;-57
2023/08/23 05:20:25;;;;;;;6.30;4.50;;;;;;;15.63;94.98;101844.16;5088797;28;20020;-57
2023/08/23 05:22:50;;;;;;;7.47;4.88;;;;;;;15.66;95.42;101835.88;5091322;28;20024;-57
2023/08/23 05:25:16;;;;;;;5.10;4.50;;;;;;;15.76;94.98;101840.66;5090990;28;20020;-57
2023/08/23 05:27:42;;;;;;;9.65;4.30;;;;;;;15.74;95.07;101842.59;5091501;28;20024;-57
2023/08/23 05:30:08;;;;;;;4.90;4.22;;;;;;;15.76;95.07;101849.53;5074903;28;20039;-57
2023/08/23 05:32:34;;;;;;;7.50;5.00;;;;;;;15.78;94.99;101852.13;5077526;28;20032;-57
2023/08/23 05:35:03;;;;;;;4.93;4.53;;;;;;;15.81;94.86;101855.47;5091273;28;20121;-57
2023/08/23 05:37:28;;;;;;;5.32;4.75;;;;;;;15.83;94.59;101853.53;5090747;28;20054;-57
2023/08/23 05:39:53;;;;;;;7.18;5.18;;;;;;;15.82;94.54;101848.25;5078503;28;20028;-57
2023/08/23 05:42:21;;;;;;;5.80;5.05;;;;;;;15.88;94.59;101848.72;5089562;28;20085;-57
2023/08/23 05:44:47;;;;;;;9.75;5.40;;;;;;;15.85;94.82;101848.94;5089914;28;20336;-57
2023/08/23 05:47:12;;;;;;;8.00;5.53;;;;;;;15.82;94.90;101857.16;5091218;28;20118;-57
2023/08/23 05:49:37;;;;;;;7.47;5.80;;;;;;;15.80;95.00;101855.59;5089000;28;20028;-57
2023/08/23 05:52:03;;;;;;;12.20;6.25;;;;;;;15.82;95.49;101851.81;5087810;28;20052;-57
2023/08/23 05:54:31;;;;;;;6.10;5.50;;;;;;;15.86;95.68;101864.06;5089072;28;20391;-57
2023/08/23 05:56:59;;;;;;;6.20;5.53;;;;;;;15.96;95.53;101852.69;5087351;28;20044;-57
2023/08/23 05:59:25;;;;;;;8.05;5.80;;;;;;;15.97;95.48;101857.06;5088958;28;20040;-57
2023/08/23 06:01:52;;;;;;;6.70;6.00;;;;;;;16.10;94.98;101864.16;5091302;28;20073;-57
2023/08/23 06:04:18;;;;;;;8.60;6.93;;;;;;;16.15;95.21;101854.91;5094717;28;20493;-57
2023/08/23 06:06:43;;;;;;;7.63;6.80;;;;;;;16.19;95.23;101851.06;5099458;28;20020;-57
2023/08/23 06:09:09;;;;;;;12.88;6.93;;;;;;;16.31;95.29;101866.31;5099681;28;20474;-57
2023/08/23 06:11:34;;;;;;;9.10;7.47;;;;;;;16.33;95.55;101867.06;5093441;28;20024;-57
2023/08/23 06:13:59;;;;;;;11.65;8.20;;;;;;;16.42;95.59;101860.19;5074056;28;20698;-57
2023/08/23 06:16:25;;;;;;;10.65;7.95;;;;;;;16.51;95.10;101856.84;5089657;28;20474;-57
2023/08/23 06:18:50;;;;;;;9.65;8.57;;;;;;;16.55;95.24;101863.69;5094577;28;20016;-57
2023/08/23 06:21:16;;;;;;;9.18;8.25;;;;;;;16.68;95.20;101864.53;5094127;28;20031;-58
2023/08/23 06:23:43;;;;;;;10.32;9.13;;;;;;;16.79;95.30;101861.06;5093997;28;20028;-57
2023/08/23 06:26:11;;;;;;;10.98;9.88;;;;;;;16.79;95.76;101861.97;5094514;28;20020;-57
2023/08/23 06:28:36;;;;;;;10.50;9.57;;;;;;;16.93;95.73;101868.13;5100906;28;20065;-57
2023/08/23 06:31:02;;;;;;;10.48;9.45;;;;;;;17.01;96.22;101868.44;5094263;28;20119;-57
2023/08/23 06:33:27;;;;;;;9.80;8.77;;;;;;;17.08;96.41;101867.00;5092665;28;20050;-58
2023/08/23 06:35:53;;;;;;;11.63;9.45;;;;;;;17.23;95.41;101863.16;5073281;28;20103;-58
2023/08/23 06:38:18;;;;;;;13.18;10.15;;;;;;;17.29;95.48;101859.16;5080256;28;20023;-57
2023/08/23 06:40:48;;;;;;;11.07;9.93;;;;;;;17.37;95.47;101863.97;5092385;28;20036;-57
2023/08/23 06:43:18;;;;;;;28.10;10.02;;;;;;;17.52;96.34;101870.00;5092438;28;20024;-57
2023/08/23 06:45:43;;;;;;;10.55;9.45;;;;;;;17.54;95.87;101870.75;5092841;28;20024;-58
2023/08/23 06:48:09;;;;;;;10.70;9.52;;;;;;;17.57;96.18;101863.31;5100603;28;20065;-57
2023/08/23 06:50:35;;;;;;;12.63;10.27;;;;;;;17.70;93.00;101860.53;5093165;28;20527;-59
2023/08/23 06:53:00;;;;;;;10.93;9.40;;;;;;;17.80;94.96;101868.78;5092722;28;20564;-58
2023/08/23 06:55:27;;;;;;;12.90;9.68;;;;;;;17.83;94.21;101865.88;5093200;28;20103;-57
2023/08/23 06:57:52;;;;;;;15.57;9.95;;;;;;;18.05;92.18;101873.09;5092992;28;20047;-58
2023/08/23 07:00:20;;;;;;;15.18;9.82;;;;;;;18.10;92.13;101887.06;5093535;28;20032;-57
2023/08/23 07:02:46;;;;;;;13.13;9.27;;;;;;;18.22;90.50;101888.81;5084535;28;20119;-57
2023/08/23 07:05:11;;;;;;;12.45;9.35;;;;;;;18.27;91.25;101891.16;5086619;28;20146;-57
2023/08/23 07:07:37;;;;;;;15.23;9.95;;;;;;;18.41;90.32;101881.94;5092452;28;20020;-58
2023/08/23 07:10:05;;;;;;;13.85;9.82;;;;;;;18.42;91.34;101895.31;5081519;28;20471;-58
2023/08/23 07:12:30;;;;;;;11.07;9.48;;;;;;;18.50;90.44;101889.28;5083187;28;20063;-57
2023/08/23 07:14:56;;;;;;;10.77;9.13;;;;;;;18.71;88.05;101903.75;5092564;28;20113;-57
2023/08/23 07:17:21;;;;;;;14.38;9.77;;;;;;;18.86;88.03;101904.38;5073819;28;20029;-58
2023/08/23 07:19:48;;;;;;;12.77;9.32;;;;;;;18.90;89.81;101900.44;5093134;28;20028;-59
2023/08/23 07:22:13;;;;;;;13.77;9.40;;;;;;;19.09;88.48;101904.31;5098500;28;20054;-60
2023/08/23 07:24:39;;;;;;;11.65;9.05;;;;;;;19.20;86.96;101907.00;5092987;28;20025;-58
2023/08/23 07:27:04;;;;;;;10.88;8.98;;;;;;;19.25;85.68;101911.03;5086073;28;20070;-57
2023/08/23 07:29:30;;;;;;;13.25;8.85;;;;;;;19.36;85.17;101914.69;5087085;28;20032;-57
2023/08/23 07:31:57;;;;;;;12.30;8.75;;;;;;;19.35;84.39;101921.03;5090198;28;20081;-58
2023/08/23 07:34:22;;;;;;;12.00;8.43;;;;;;;19.45;84.20;101908.53;5090321;28;20107;-58
2023/08/23 07:36:50;;;;;;;9.95;8.30;;;;;;;19.50;83.42;101917.94;5092670;28;20111;-57
2023/08/23 07:39:15;;;;;;;13.40;8.10;;;;;;;19.56;83.81;101913.00;5097134;28;20020;-59
2023/08/23 07:41:41;;;;;;;11.88;8.00;;;;;;;19.55;82.83;101905.91;5086911;28;20024;-58
2023/08/23 07:44:06;;;;;;;11.70;7.97;;;;;;;19.58;80.95;101914.59;5071359;28;20028;-58
2023/08/23 07:46:31;;;;;;;14.77;7.93;;;;;;;19.61;81.42;101916.16;5083462;28;20081;-58
2023/08/23 07:48:57;;;;;;;9.18;7.72;;;;;;;19.83;80.81;101920.66;5092532;28;20024;-59
2023/08/23 07:51:22;;;;;;;9.88;7.78;;;;;;;19.95;80.72;101933.94;5098654;28;20470;-58
2023/08/23 07:53:48;;;;;;;9.88;7.38;;;;;;;20.00;78.14;101932.69;5089229;28;20434;-58
2023/08/23 07:56:13;;;;;;;12.57;7.32;;;;;;;20.02;78.76;101923.47;5091371;28;20498;-59
2023/08/23 07:58:39;;;;;;;12.88;8.35;;;;;;;20.08;78.90;101927.50;5086781;28;20032;-58
2023/08/23 08:01:05;;;;;;;10.35;8.63;;;;;;;20.06;78.31;101916.84;5092554;28;20463;-58
2023/08/23 08:03:33;;;;;;;11.90;7.47;;;;;;;20.19;78.84;101916.63;5097102;28;20047;-58
2023/08/23 08:05:59;;;;;;;12.77;8.25;;;;;;;20.19;77.74;101917.47;5074218;28;20437;-58
2023/08/23 08:08:25;;;;;;;12.95;7.97;;;;;;;20.19;77.02;101919.31;5090824;28;20023;-58
2023/08/23 08:10:50;;;;;;;10.52;7.43;;;;;;;20.30;76.65;101923.81;5092945;28;20040;-58
2023/08/23 08:13:16;;;;;;;14.05;7.65;;;;;;;20.25;76.70;101924.19;5090710;28;20024;-58
2023/08/23 08:15:42;;;;;;;12.75;7.63;;;;;;;20.30;76.29;101927.34;5104404;28;20020;-59
2023/08/23 08:18:07;;;;;;;9.65;8.23;;;;;;;20.34;76.54;101927.94;5070881;28;20029;-58
2023/08/23 08:20:33;;;;;;;12.65;7.68;;;;;;;20.39;78.52;101929.25;5086264;28;20445;-58
2023/08/23 08:22:58;;;;;;;11.38;6.40;;;;;;;20.49;75.81;101926.59;5092483;28;20032;-58
2023/08/23 08:25:24;;;;;;;6.70;5.43;;;;;;;20.47;75.53;101914.19;5089861;28;20012;-58
2023/08/23 08:27:52;;;;;;;9.13;5.13;;;;;;;20.64;72.07;101936.06;5092479;28;20028;-58
2023/08/23 08:30:18;;;;;;;8.88;5.95;;;;;;;20.67;73.29;101934.09;5106745;28;20028;-58
2023/08/23 08:32:44;;;;;;;6.15;4.55;;;;;;;20.75;71.38;101927.00;5091964;28;20039;-59
2023/08/23 08:35:10;;;;;;;7.95;4.70;;;;;;;20.82;71.36;101922.78;5105538;28;20024;-58
2023/08/23 08:37:38;;;;;;;8.10;4.82;;;;;;;20.91;70.14;101915.66;5087466;28;20039;-58
2023/08/23 08:40:04;;;;;;;7.53;4.30;;;;;;;20.91;72.02;101920.22;5070504;28;20024;-58
2023/08/23 08:42:30;;;;;;;6.15;4.25;;;;;;;21.02;69.69;101906.59;5075583;28;20039;-58
2023/08/23 08:44:56;;;;;;;8.15;4.50;;;;;;;21.04;72.54;101916.28;5086370;28;20027;-58
2023/08/23 08:47:24;;;;;;;8.35;4.90;;;;;;;21.02;71.07;101910.16;5091948;28;20047;-58
2023/08/23 08:49:50;;;;;;;8.82;5.38;;;;;;;21.13;68.67;101913.75;5091825;28;20031;-58
2023/08/23 08:52:19;;;;;;;7.60;5.32;;;;;;;21.37;68.13;101916.09;5091850;28;20020;-58
2023/08/23 08:54:47;;;;;;;18.63;5.20;;;;;;;21.37;70.35;101919.66;5091020;28;20037;-59
2023/08/23 08:57:16;;;;;;;21.08;5.05;;;;;;;21.39;71.10;101914.09;5090326;28;20455;-58
2023/08/23 08:59:42;;;;;;;;;;;;;;;21.53;72.26;101919.94;5091888;28;20069;-58
2023/08/23 09:02:15;;;;;;;33.33;5.97;;;;;;;21.45;68.27;101906.25;5092024;28;19953;-58
2023/08/23 09:04:45;;;;;;;24.10;6.35;;;;;;;21.55;69.03;101914.38;5091255;28;20020;-59
2023/08/23 09:07:11;;;;;;;20.02;6.35;;;;;;;21.67;68.23;101913.22;5105209;28;20486;-58
2023/08/23 09:09:36;;;;;;;18.20;6.00;;;;;;;21.75;66.81;101913.38;5111761;28;20046;-58
2023/08/23 09:12:02;;;;;;;18.60;6.63;;;;;;;21.79;68.19;101916.66;5112157;28;20015;-59
2023/08/23 09:14:28;;;;;;;29.13;6.15;;;;;;;21.90;67.80;101916.50;5103313;28;20081;-59
2023/08/23 09:16:54;;;;;;;13.15;7.20;;;;;;;21.97;66.70;101911.34;5091643;28;20032;-58
2023/08/23 09:19:21;;;;;;;9.57;6.85;;;;;;;22.04;66.46;101919.78;5091586;28;20035;-58
2023/08/23 09:21:51;;;;;;;16.35;7.07;;;;;;;22.03;67.04;101918.03;5091666;28;20016;-58
2023/08/23 09:24:18;;;;;;;11.85;6.43;;;;;;;22.06;67.07;101924.03;5093152;28;20565;-59
2023/08/23 09:26:44;;;;;;;13.70;7.30;;;;;;;22.11;67.67;101918.16;5110606;28;20466;-58
2023/08/23 09:29:10;;;;;;;12.93;8.30;;;;;;;22.23;67.76;101911.59;5110517;28;20115;-58
2023/08/23 09:31:36;;;;;;;12.82;8.02;;;;;;;22.25;67.56;101928.59;5112107;28;20031;-58
2023/08/23 09:34:03;;;;;;;13.55;7.38;;;;;;;22.30;66.69;101928.16;5106384;28;20020;-58
2023/08/23 09:36:30;;;;;;;9.30;7.20;;;;;;;22.26;68.29;101927.56;5100338;28;20111;-58
2023/08/23 09:38:59;;;;;;;11.40;8.40;;;;;;;22.48;66.35;101926.38;5115082;28;20032;-58
2023/08/23 09:41:25;;;;;;;13.43;7.72;;;;;;;22.53;67.21;101912.34;5115892;28;20016;-58
2023/08/23 09:43:54;;;;;;;9.13;6.47;;;;;;;22.55;65.11;101907.66;5115504;28;20038;-58
2023/08/23 09:46:25;;;;;;;10.10;6.95;;;;;;;22.71;65.22;101910.59;5109816;28;20020;-58
2023/08/23 09:48:55;;;;;;;12.77;7.15;;;;;;;22.79;65.60;101907.94;5094853;28;20020;-58
2023/08/23 09:51:23;;;;;;;11.23;6.80;;;;;;;22.87;66.12;101899.06;5095295;28;20027;-58
2023/08/23 09:53:54;;;;;;;10.23;6.35;;;;;;;22.93;66.32;101916.59;5099329;28;20027;-58
2023/08/23 09:56:20;;;;;;;11.88;6.90;;;;;;;22.92;67.61;101904.91;5115268;28;20023;-58
2023/08/23 09:58:46;;;;;;;10.95;6.57;;;;;;;23.10;65.42;101913.97;5114925;28;20048;-58
2023/08/23 10:01:14;;;;;;;13.13;6.28;;;;;;;23.19;63.82;101914.06;5115328;28;20546;-58
2023/08/23 10:03:43;;;;;;;10.02;6.82;;;;;;;23.20;64.04;101913.88;5112689;28;20451;-58
2023/08/23 10:06:09;;;;;;;12.98;6.05;;;;;;;23.30;65.26;101919.25;5094912;28;20024;-59
2023/08/23 10:08:39;;;;;;;8.80;6.82;;;;;;;23.39;65.14;101925.63;5094220;28;20127;-59
2023/08/23 10:11:04;;;;;;;9.07;6.07;;;;;;;23.47;64.35;101918.41;5094827;28;20047;-59
2023/08/23 10:13:31;;;;;;;8.25;6.70;;;;;;;23.56;64.87;101913.94;5098788;28;20352;-59
2023/08/23 10:15:59;;;;;;;9.07;7.00;;;;;;;23.51;62.81;101919.81;5114868;28;20053;-59
2023/08/23 10:18:27;;;;;;;7.50;5.97;;;;;;;23.52;62.81;101909.78;5113529;28;20062;-58
2023/08/23 10:20:53;;;;;;;8.57;6.72;;;;;;;23.62;62.77;101924.16;5113833;28;20024;-59
2023/08/23 10:23:21;;;;;;;7.72;6.10;;;;;;;23.57;62.01;101918.34;5114940;28;20057;-59
2023/08/23 10:25:47;;;;;;;6.30;5.70;;;;;;;23.70;62.02;101907.09;5111706;28;20030;-58
2023/08/23 10:28:16;;;;;;;10.18;5.63;;;;;;;23.80;64.24;101916.03;5114599;28;20470;-59
2023/08/23 10:30:54;;;;;;;15.13;7.10;;;;;;;23.78;62.38;101918.88;5114816;28;20034;-59
2023/08/23 10:33:20;;;;;;;9.98;6.78;;;;;;;23.80;60.84;101922.31;5107951;28;20027;-58
2023/08/23 10:35:47;;;;;;;9.30;6.60;;;;;;;23.83;60.46;101915.72;5106717;28;20031;-59
2023/08/23 10:38:13;;;;;;;10.45;5.53;;;;;;;23.92;59.33;101919.34;5080817;28;20042;-59
2023/08/23 10:40:44;;;;;;;6.07;4.60;;;;;;;24.07;60.03;101917.75;5083307;28;20035;-59
2023/08/23 10:43:11;;;;;;;8.80;4.93;;;;;;;24.11;59.80;101910.97;5087780;28;20114;-59
2023/08/23 10:45:50;;;;;;;10.25;6.28;;;;;;;24.13;59.44;101902.66;5076934;28;20035;-58
2023/08/23 10:48:21;;;;;;;14.18;5.40;;;;;;;24.29;59.75;101904.63;5093599;28;20082;-58
2023/08/23 10:50:47;;;;;;;9.52;6.35;;;;;;;24.26;58.15;101905.78;5075444;28;20108;-58
2023/08/23 10:53:15;;;;;;;11.25;6.60;;;;;;;24.25;58.57;101902.22;5085532;28;20415;-58
2023/08/23 10:55:40;;;;;;;8.90;7.10;;;;;;;24.36;58.49;101897.53;5113363;28;20044;-59
2023/08/23 10:58:06;;;;;;;9.77;5.43;;;;;;;24.35;58.35;101899.38;5114199;28;20043;-58
2023/08/23 11:00:31;;;;;;;8.32;4.18;;;;;;;24.37;57.46;101908.25;5099544;28;20518;-60
2023/08/23 11:03:00;;;;;;;8.13;4.25;;;;;;;24.32;54.21;101896.16;5090007;28;20507;-59
2023/08/23 11:05:26;;;;;;;7.25;4.50;;;;;;;24.37;56.35;101885.66;5091720;28;20432;-60
2023/08/23 11:07:52;;;;;;;7.32;4.13;;;;;;;24.53;55.75;101882.16;5091381;28;20035;-60
2023/08/23 11:10:18;;;;;;;7.38;4.55;;;;;;;24.63;55.95;101885.63;5089859;28;20490;-61
2023/08/23 11:12:43;;;;;;;4.43;4.03;;;;;;;24.68;57.96;101864.25;5093763;28;20114;-59
2023/08/23 11:15:09;;;;;;;9.05;4.55;;;;;;;24.69;55.25;101872.22;5094581;28;20024;-60
2023/08/23 11:17:34;;;;;;;8.52;3.78;;;;;;;24.60;53.62;101873.22;5092880;28;20020;-61
2023/08/23 11:20:00;;;;;;;6.03;3.80;;;;;;;24.42;52.88;101872.41;5087748;28;20028;-60